sensor_id;sensor_type;location;lat;lon;timestamp;temperature;humidity
563;DHT22;266;49.514;8.294;2023-04-26T00:02:24;6.00;99.90
563;DHT22;266;49.514;8.294;2023-04-26T00:04:53;6.00;99.90
563;DHT22;266;49.514;8.294;2023-04-26T00:07:22;5.90;99.90
563;DHT22;266;49.514;8.294;2023-04-26T00:09:51;5.90;99.90
563;DHT22;266;49.514;8.294;2023-04-26T00:12:19;5.80;99.90
563;DHT22;266;49.514;8.294;2023-04-26T00:14:48;5.80;99.90
563;DHT22;266;49.514;8.294;2023-04-26T00:17:16;5.80;99.90
563;DHT22;266;49.514;8.294;2023-04-26T00:19:45;5.80;99.90
563;DHT22;266;49.514;8.294;2023-04-26T00:22:13;5.70;99.90
563;DHT22;266;49.514;8.294;2023-04-26T00:24:41;5.70;99.90
563;DHT22;266;49.514;8.294;2023-04-26T00:27:10;5.60;99.90
563;DHT22;266;49.514;8.294;2023-04-26T00:29:38;5.60;99.90
563;DHT22;266;49.514;8.294;2023-04-26T00:32:07;5.60;99.90
563;DHT22;266;49.514;8.294;2023-04-26T00:34:36;5.50;99.90
563;DHT22;266;49.514;8.294;2023-04-26T00:37:05;5.50;99.90
563;DHT22;266;49.514;8.294;2023-04-26T00:39:33;5.50;99.90
563;DHT22;266;49.514;8.294;2023-04-26T00:42:01;5.40;99.90
563;DHT22;266;49.514;8.294;2023-04-26T00:44:29;5.40;99.90
563;DHT22;266;49.514;8.294;2023-04-26T00:46:57;5.40;99.90
563;DHT22;266;49.514;8.294;2023-04-26T00:49:25;5.40;99.90
563;DHT22;266;49.514;8.294;2023-04-26T00:51:53;5.30;99.90
563;DHT22;266;49.514;8.294;2023-04-26T00:54:23;5.20;99.90
563;DHT22;266;49.514;8.294;2023-04-26T00:56:51;5.20;99.90
563;DHT22;266;49.514;8.294;2023-04-26T00:59:19;5.20;99.90
563;DHT22;266;49.514;8.294;2023-04-26T01:01:47;5.10;99.90
563;DHT22;266;49.514;8.294;2023-04-26T01:04:15;5.10;99.90
563;DHT22;266;49.514;8.294;2023-04-26T01:06:44;5.10;99.90
563;DHT22;266;49.514;8.294;2023-04-26T01:09:12;5.10;99.90
563;DHT22;266;49.514;8.294;2023-04-26T01:11:43;5.00;99.90
563;DHT22;266;49.514;8.294;2023-04-26T01:14:13;5.00;99.90
563;DHT22;266;49.514;8.294;2023-04-26T01:16:41;5.00;99.90
563;DHT22;266;49.514;8.294;2023-04-26T01:19:12;5.10;99.90
563;DHT22;266;49.514;8.294;2023-04-26T01:21:41;5.10;99.90
563;DHT22;266;49.514;8.294;2023-04-26T01:24:11;5.10;99.90
563;DHT22;266;49.514;8.294;2023-04-26T01:26:40;5.00;99.90
563;DHT22;266;49.514;8.294;2023-04-26T01:29:15;5.00;99.90
563;DHT22;266;49.514;8.294;2023-04-26T01:31:44;4.90;99.90
563;DHT22;266;49.514;8.294;2023-04-26T01:34:12;4.90;99.90
563;DHT22;266;49.514;8.294;2023-04-26T01:36:40;4.90;99.90
563;DHT22;266;49.514;8.294;2023-04-26T01:39:09;4.80;99.90
563;DHT22;266;49.514;8.294;2023-04-26T01:41:38;4.80;99.90
563;DHT22;266;49.514;8.294;2023-04-26T01:44:06;4.80;99.90
563;DHT22;266;49.514;8.294;2023-04-26T01:46:34;4.80;99.90
563;DHT22;266;49.514;8.294;2023-04-26T01:49:02;4.70;99.90
563;DHT22;266;49.514;8.294;2023-04-26T01:51:30;4.60;99.90
563;DHT22;266;49.514;8.294;2023-04-26T01:53:58;4.40;99.90
563;DHT22;266;49.514;8.294;2023-04-26T01:56:27;4.20;99.90
563;DHT22;266;49.514;8.294;2023-04-26T01:58:55;4.10;99.90
563;DHT22;266;49.514;8.294;2023-04-26T02:01:24;3.90;99.90
563;DHT22;266;49.514;8.294;2023-04-26T02:03:53;3.70;99.90
563;DHT22;266;49.514;8.294;2023-04-26T02:06:20;3.70;99.90
563;DHT22;266;49.514;8.294;2023-04-26T02:08:48;3.60;99.90
563;DHT22;266;49.514;8.294;2023-04-26T02:11:17;3.60;99.90
563;DHT22;266;49.514;8.294;2023-04-26T02:13:46;3.50;99.90
563;DHT22;266;49.514;8.294;2023-04-26T02:16:14;3.50;99.90
563;DHT22;266;49.514;8.294;2023-04-26T02:18:42;3.40;99.90
563;DHT22;266;49.514;8.294;2023-04-26T02:21:11;3.40;99.90
563;DHT22;266;49.514;8.294;2023-04-26T02:23:39;3.30;99.90
563;DHT22;266;49.514;8.294;2023-04-26T02:26:07;3.30;99.90
563;DHT22;266;49.514;8.294;2023-04-26T02:28:35;3.30;99.90
563;DHT22;266;49.514;8.294;2023-04-26T02:31:04;3.30;99.90
563;DHT22;266;49.514;8.294;2023-04-26T02:33:32;3.10;99.90
563;DHT22;266;49.514;8.294;2023-04-26T02:36:02;2.90;99.90
563;DHT22;266;49.514;8.294;2023-04-26T02:38:32;2.90;99.90
563;DHT22;266;49.514;8.294;2023-04-26T02:41:01;2.80;99.90
563;DHT22;266;49.514;8.294;2023-04-26T02:43:29;2.90;99.90
563;DHT22;266;49.514;8.294;2023-04-26T02:45:57;2.90;99.90
563;DHT22;266;49.514;8.294;2023-04-26T02:48:28;3.00;99.90
563;DHT22;266;49.514;8.294;2023-04-26T02:50:55;3.00;99.90
563;DHT22;266;49.514;8.294;2023-04-26T02:53:23;3.00;99.90
563;DHT22;266;49.514;8.294;2023-04-26T02:55:51;2.90;99.90
563;DHT22;266;49.514;8.294;2023-04-26T02:58:19;2.80;99.90
563;DHT22;266;49.514;8.294;2023-04-26T03:00:47;2.80;99.90
563;DHT22;266;49.514;8.294;2023-04-26T03:03:15;2.70;99.90
563;DHT22;266;49.514;8.294;2023-04-26T03:05:45;2.70;99.90
563;DHT22;266;49.514;8.294;2023-04-26T03:08:13;2.60;99.90
563;DHT22;266;49.514;8.294;2023-04-26T03:10:42;2.70;99.90
563;DHT22;266;49.514;8.294;2023-04-26T03:13:10;2.70;99.90
563;DHT22;266;49.514;8.294;2023-04-26T03:15:42;2.70;99.90
563;DHT22;266;49.514;8.294;2023-04-26T03:18:10;2.70;99.90
563;DHT22;266;49.514;8.294;2023-04-26T03:20:38;2.70;99.90
563;DHT22;266;49.514;8.294;2023-04-26T03:23:08;2.60;99.90
563;DHT22;266;49.514;8.294;2023-04-26T03:25:35;2.60;99.90
563;DHT22;266;49.514;8.294;2023-04-26T03:28:04;2.50;99.90
563;DHT22;266;49.514;8.294;2023-04-26T03:30:32;2.50;99.90
563;DHT22;266;49.514;8.294;2023-04-26T03:32:59;2.50;99.90
563;DHT22;266;49.514;8.294;2023-04-26T03:35:28;2.40;99.90
563;DHT22;266;49.514;8.294;2023-04-26T03:37:55;2.30;99.90
563;DHT22;266;49.514;8.294;2023-04-26T03:40:25;2.20;99.90
563;DHT22;266;49.514;8.294;2023-04-26T03:42:53;2.10;99.90
563;DHT22;266;49.514;8.294;2023-04-26T03:45:21;2.10;99.90
563;DHT22;266;49.514;8.294;2023-04-26T03:47:50;2.00;99.90
563;DHT22;266;49.514;8.294;2023-04-26T03:50:18;1.90;99.90
563;DHT22;266;49.514;8.294;2023-04-26T03:52:46;1.90;99.90
563;DHT22;266;49.514;8.294;2023-04-26T03:55:14;1.90;99.90
563;DHT22;266;49.514;8.294;2023-04-26T03:57:43;2.00;99.90
563;DHT22;266;49.514;8.294;2023-04-26T04:00:12;2.00;99.90
563;DHT22;266;49.514;8.294;2023-04-26T04:02:41;2.00;99.90
563;DHT22;266;49.514;8.294;2023-04-26T04:05:09;2.00;99.90
563;DHT22;266;49.514;8.294;2023-04-26T04:07:37;2.00;99.90
563;DHT22;266;49.514;8.294;2023-04-26T04:10:06;1.90;99.90
563;DHT22;266;49.514;8.294;2023-04-26T04:12:36;1.80;99.90
563;DHT22;266;49.514;8.294;2023-04-26T04:15:06;1.80;99.90
563;DHT22;266;49.514;8.294;2023-04-26T04:17:35;1.70;99.90
563;DHT22;266;49.514;8.294;2023-04-26T04:20:05;1.70;99.90
563;DHT22;266;49.514;8.294;2023-04-26T04:22:34;1.70;99.90
563;DHT22;266;49.514;8.294;2023-04-26T04:25:05;1.70;99.90
563;DHT22;266;49.514;8.294;2023-04-26T04:27:33;1.70;99.90
563;DHT22;266;49.514;8.294;2023-04-26T04:30:03;1.80;99.90
563;DHT22;266;49.514;8.294;2023-04-26T04:32:34;1.80;99.90
563;DHT22;266;49.514;8.294;2023-04-26T04:35:02;1.80;99.90
563;DHT22;266;49.514;8.294;2023-04-26T04:37:31;1.80;99.90
563;DHT22;266;49.514;8.294;2023-04-26T04:40:00;1.70;99.90
563;DHT22;266;49.514;8.294;2023-04-26T04:42:28;1.70;99.90
563;DHT22;266;49.514;8.294;2023-04-26T04:44:56;1.60;99.90
563;DHT22;266;49.514;8.294;2023-04-26T04:47:25;1.60;99.90
563;DHT22;266;49.514;8.294;2023-04-26T04:49:54;1.70;99.90
563;DHT22;266;49.514;8.294;2023-04-26T04:52:22;1.70;99.90
563;DHT22;266;49.514;8.294;2023-04-26T04:54:50;1.80;99.90
563;DHT22;266;49.514;8.294;2023-04-26T04:57:18;1.90;99.90
563;DHT22;266;49.514;8.294;2023-04-26T04:59:46;1.90;99.90
563;DHT22;266;49.514;8.294;2023-04-26T05:02:14;2.00;99.90
563;DHT22;266;49.514;8.294;2023-04-26T05:04:42;2.00;99.90
563;DHT22;266;49.514;8.294;2023-04-26T05:07:12;2.00;99.90
563;DHT22;266;49.514;8.294;2023-04-26T05:09:41;2.10;99.90
563;DHT22;266;49.514;8.294;2023-04-26T05:12:09;2.20;99.90
563;DHT22;266;49.514;8.294;2023-04-26T05:14:37;2.30;99.90
563;DHT22;266;49.514;8.294;2023-04-26T05:17:06;2.40;99.90
563;DHT22;266;49.514;8.294;2023-04-26T05:19:34;2.60;99.90
563;DHT22;266;49.514;8.294;2023-04-26T05:22:02;2.70;99.90
563;DHT22;266;49.514;8.294;2023-04-26T05:24:32;2.80;99.90
563;DHT22;266;49.514;8.294;2023-04-26T05:27:01;3.00;99.90
563;DHT22;266;49.514;8.294;2023-04-26T05:29:30;3.10;99.90
563;DHT22;266;49.514;8.294;2023-04-26T05:31:58;3.30;99.90
563;DHT22;266;49.514;8.294;2023-04-26T05:34:26;3.40;99.90
563;DHT22;266;49.514;8.294;2023-04-26T05:36:54;3.50;99.90
563;DHT22;266;49.514;8.294;2023-04-26T05:39:22;3.60;99.90
563;DHT22;266;49.514;8.294;2023-04-26T05:41:51;3.70;99.90
563;DHT22;266;49.514;8.294;2023-04-26T05:44:19;3.80;99.90
563;DHT22;266;49.514;8.294;2023-04-26T05:46:47;3.90;99.90
563;DHT22;266;49.514;8.294;2023-04-26T05:49:15;4.00;99.90
563;DHT22;266;49.514;8.294;2023-04-26T05:51:43;4.10;99.90
563;DHT22;266;49.514;8.294;2023-04-26T05:54:11;4.20;99.90
563;DHT22;266;49.514;8.294;2023-04-26T05:56:39;4.30;99.90
563;DHT22;266;49.514;8.294;2023-04-26T05:59:08;4.40;99.90
563;DHT22;266;49.514;8.294;2023-04-26T06:01:37;4.50;99.90
563;DHT22;266;49.514;8.294;2023-04-26T06:04:06;4.60;99.90
563;DHT22;266;49.514;8.294;2023-04-26T06:06:35;4.70;99.90
563;DHT22;266;49.514;8.294;2023-04-26T06:09:03;4.80;99.90
563;DHT22;266;49.514;8.294;2023-04-26T06:11:31;4.90;99.90
563;DHT22;266;49.514;8.294;2023-04-26T06:13:59;5.00;99.90
563;DHT22;266;49.514;8.294;2023-04-26T06:16:28;5.20;99.90
563;DHT22;266;49.514;8.294;2023-04-26T06:18:57;5.30;99.90
563;DHT22;266;49.514;8.294;2023-04-26T06:21:26;5.40;99.90
563;DHT22;266;49.514;8.294;2023-04-26T06:23:54;5.40;99.90
563;DHT22;266;49.514;8.294;2023-04-26T06:26:22;5.50;99.90
563;DHT22;266;49.514;8.294;2023-04-26T06:28:50;5.50;99.90
563;DHT22;266;49.514;8.294;2023-04-26T06:31:17;5.60;99.90
563;DHT22;266;49.514;8.294;2023-04-26T06:33:48;5.60;99.90
563;DHT22;266;49.514;8.294;2023-04-26T06:36:17;5.70;99.90
563;DHT22;266;49.514;8.294;2023-04-26T06:38:45;5.70;99.90
563;DHT22;266;49.514;8.294;2023-04-26T06:41:13;5.80;99.90
563;DHT22;266;49.514;8.294;2023-04-26T06:43:40;5.90;99.90
563;DHT22;266;49.514;8.294;2023-04-26T06:46:08;6.10;99.90
563;DHT22;266;49.514;8.294;2023-04-26T06:48:36;6.20;99.90
563;DHT22;266;49.514;8.294;2023-04-26T06:51:06;6.30;99.90
563;DHT22;266;49.514;8.294;2023-04-26T06:53:34;6.50;99.90
563;DHT22;266;49.514;8.294;2023-04-26T06:56:02;6.60;99.90
563;DHT22;266;49.514;8.294;2023-04-26T06:58:30;6.70;99.90
563;DHT22;266;49.514;8.294;2023-04-26T07:00:58;6.80;99.90
563;DHT22;266;49.514;8.294;2023-04-26T07:03:26;6.90;99.90
563;DHT22;266;49.514;8.294;2023-04-26T07:05:55;7.00;99.90
563;DHT22;266;49.514;8.294;2023-04-26T07:08:24;7.10;99.90
563;DHT22;266;49.514;8.294;2023-04-26T07:10:52;7.20;99.90
563;DHT22;266;49.514;8.294;2023-04-26T07:13:21;7.40;99.90
563;DHT22;266;49.514;8.294;2023-04-26T07:15:48;7.60;99.90
563;DHT22;266;49.514;8.294;2023-04-26T07:18:17;7.70;99.90
563;DHT22;266;49.514;8.294;2023-04-26T07:20:45;7.90;99.90
563;DHT22;266;49.514;8.294;2023-04-26T07:23:13;8.10;99.90
563;DHT22;266;49.514;8.294;2023-04-26T07:25:42;8.20;99.90
563;DHT22;266;49.514;8.294;2023-04-26T07:28:10;8.20;99.90
563;DHT22;266;49.514;8.294;2023-04-26T07:30:42;8.30;99.90
563;DHT22;266;49.514;8.294;2023-04-26T07:33:10;8.30;99.90
563;DHT22;266;49.514;8.294;2023-04-26T07:35:38;8.30;99.90
563;DHT22;266;49.514;8.294;2023-04-26T07:38:06;8.50;99.90
563;DHT22;266;49.514;8.294;2023-04-26T07:40:34;8.50;99.90
563;DHT22;266;49.514;8.294;2023-04-26T07:43:04;8.70;99.90
563;DHT22;266;49.514;8.294;2023-04-26T07:45:32;9.00;99.90
563;DHT22;266;49.514;8.294;2023-04-26T07:48:00;9.20;99.90
563;DHT22;266;49.514;8.294;2023-04-26T07:50:28;9.30;99.90
563;DHT22;266;49.514;8.294;2023-04-26T07:52:56;9.30;99.90
563;DHT22;266;49.514;8.294;2023-04-26T07:55:24;9.40;99.90
563;DHT22;266;49.514;8.294;2023-04-26T07:57:52;9.70;99.90
563;DHT22;266;49.514;8.294;2023-04-26T08:00:22;10.00;99.90
563;DHT22;266;49.514;8.294;2023-04-26T08:02:50;10.20;99.90
563;DHT22;266;49.514;8.294;2023-04-26T08:05:18;10.40;99.90
563;DHT22;266;49.514;8.294;2023-04-26T08:07:47;10.70;99.90
563;DHT22;266;49.514;8.294;2023-04-26T08:10:16;11.10;99.90
563;DHT22;266;49.514;8.294;2023-04-26T08:12:44;11.30;99.90
563;DHT22;266;49.514;8.294;2023-04-26T08:15:11;11.40;99.90
563;DHT22;266;49.514;8.294;2023-04-26T08:17:41;11.40;99.90
563;DHT22;266;49.514;8.294;2023-04-26T08:20:09;11.70;99.90
563;DHT22;266;49.514;8.294;2023-04-26T08:22:37;11.60;99.90
563;DHT22;266;49.514;8.294;2023-04-26T08:25:06;11.60;99.90
563;DHT22;266;49.514;8.294;2023-04-26T08:27:34;11.70;99.90
563;DHT22;266;49.514;8.294;2023-04-26T08:30:03;11.90;99.90
563;DHT22;266;49.514;8.294;2023-04-26T08:32:31;12.10;99.90
563;DHT22;266;49.514;8.294;2023-04-26T08:35:02;12.30;99.90
563;DHT22;266;49.514;8.294;2023-04-26T08:37:31;12.50;99.90
563;DHT22;266;49.514;8.294;2023-04-26T08:39:59;12.80;99.90
563;DHT22;266;49.514;8.294;2023-04-26T08:42:27;12.90;99.90
563;DHT22;266;49.514;8.294;2023-04-26T08:45:00;13.10;99.90
563;DHT22;266;49.514;8.294;2023-04-26T08:47:35;13.40;99.90
563;DHT22;266;49.514;8.294;2023-04-26T08:50:10;13.30;99.90
563;DHT22;266;49.514;8.294;2023-04-26T08:52:41;12.80;99.90
563;DHT22;266;49.514;8.294;2023-04-26T08:55:10;12.40;99.90
563;DHT22;266;49.514;8.294;2023-04-26T08:57:38;12.30;99.90
563;DHT22;266;49.514;8.294;2023-04-26T09:00:08;12.40;99.90
563;DHT22;266;49.514;8.294;2023-04-26T09:02:39;12.30;99.90
563;DHT22;266;49.514;8.294;2023-04-26T09:05:10;12.20;99.90
563;DHT22;266;49.514;8.294;2023-04-26T09:07:40;12.20;99.90
563;DHT22;266;49.514;8.294;2023-04-26T09:10:10;12.10;99.90
563;DHT22;266;49.514;8.294;2023-04-26T09:12:38;12.40;99.90
563;DHT22;266;49.514;8.294;2023-04-26T09:15:07;12.60;99.90
563;DHT22;266;49.514;8.294;2023-04-26T09:17:37;12.70;99.90
563;DHT22;266;49.514;8.294;2023-04-26T09:20:29;12.70;99.90
563;DHT22;266;49.514;8.294;2023-04-26T09:23:05;12.60;99.90
563;DHT22;266;49.514;8.294;2023-04-26T09:25:33;12.90;99.90
563;DHT22;266;49.514;8.294;2023-04-26T09:28:03;13.20;99.90
563;DHT22;266;49.514;8.294;2023-04-26T09:30:37;13.50;99.90
563;DHT22;266;49.514;8.294;2023-04-26T09:33:06;13.80;99.90
563;DHT22;266;49.514;8.294;2023-04-26T09:35:37;14.30;99.90
563;DHT22;266;49.514;8.294;2023-04-26T09:38:07;14.90;99.90
563;DHT22;266;49.514;8.294;2023-04-26T09:40:40;14.90;99.90
563;DHT22;266;49.514;8.294;2023-04-26T09:43:09;15.10;99.90
563;DHT22;266;49.514;8.294;2023-04-26T09:45:46;15.10;99.90
563;DHT22;266;49.514;8.294;2023-04-26T09:48:19;15.00;99.90
563;DHT22;266;49.514;8.294;2023-04-26T09:50:51;14.80;99.90
563;DHT22;266;49.514;8.294;2023-04-26T09:53:27;14.90;99.90
563;DHT22;266;49.514;8.294;2023-04-26T09:56:05;14.90;99.90
563;DHT22;266;49.514;8.294;2023-04-26T09:58:34;15.00;99.90
563;DHT22;266;49.514;8.294;2023-04-26T10:01:03;15.10;99.90
563;DHT22;266;49.514;8.294;2023-04-26T10:03:33;14.90;99.90
563;DHT22;266;49.514;8.294;2023-04-26T10:06:03;14.70;99.90
563;DHT22;266;49.514;8.294;2023-04-26T10:08:31;14.80;99.90
563;DHT22;266;49.514;8.294;2023-04-26T10:11:01;14.80;99.90
563;DHT22;266;49.514;8.294;2023-04-26T10:13:31;14.70;99.90
563;DHT22;266;49.514;8.294;2023-04-26T10:15:59;14.70;99.90
563;DHT22;266;49.514;8.294;2023-04-26T10:18:28;15.00;99.90
563;DHT22;266;49.514;8.294;2023-04-26T10:20:59;15.30;99.90
563;DHT22;266;49.514;8.294;2023-04-26T10:23:30;15.30;99.90
563;DHT22;266;49.514;8.294;2023-04-26T10:25:58;15.10;99.90
563;DHT22;266;49.514;8.294;2023-04-26T10:28:54;14.80;99.90
563;DHT22;266;49.514;8.294;2023-04-26T10:34:43;14.70;99.90
563;DHT22;266;49.514;8.294;2023-04-26T10:37:12;14.90;99.90
563;DHT22;266;49.514;8.294;2023-04-26T10:39:42;15.00;99.90
563;DHT22;266;49.514;8.294;2023-04-26T10:42:17;15.20;99.90
563;DHT22;266;49.514;8.294;2023-04-26T10:44:51;15.20;99.90
563;DHT22;266;49.514;8.294;2023-04-26T10:47:27;15.40;99.90
563;DHT22;266;49.514;8.294;2023-04-26T10:50:04;15.40;99.90
563;DHT22;266;49.514;8.294;2023-04-26T10:52:33;15.90;99.90
563;DHT22;266;49.514;8.294;2023-04-26T10:55:03;15.90;99.90
563;DHT22;266;49.514;8.294;2023-04-26T10:57:47;15.20;99.90
563;DHT22;266;49.514;8.294;2023-04-26T11:00:25;15.40;99.90
563;DHT22;266;49.514;8.294;2023-04-26T11:03:09;15.40;99.90
563;DHT22;266;49.514;8.294;2023-04-26T11:05:50;15.60;99.90
563;DHT22;266;49.514;8.294;2023-04-26T11:08:20;16.00;99.90
563;DHT22;266;49.514;8.294;2023-04-26T11:10:59;17.00;99.90
563;DHT22;266;49.514;8.294;2023-04-26T11:13:32;17.10;99.90
563;DHT22;266;49.514;8.294;2023-04-26T11:16:03;16.60;99.90
563;DHT22;266;49.514;8.294;2023-04-26T11:18:33;16.10;99.90
563;DHT22;266;49.514;8.294;2023-04-26T11:21:01;16.10;99.90
563;DHT22;266;49.514;8.294;2023-04-26T11:23:30;16.00;99.90
563;DHT22;266;49.514;8.294;2023-04-26T11:26:00;15.50;99.90
563;DHT22;266;49.514;8.294;2023-04-26T11:28:29;15.40;99.90
563;DHT22;266;49.514;8.294;2023-04-26T11:31:00;15.90;99.90
563;DHT22;266;49.514;8.294;2023-04-26T11:33:29;15.90;99.90
563;DHT22;266;49.514;8.294;2023-04-26T11:36:00;16.10;99.90
563;DHT22;266;49.514;8.294;2023-04-26T11:38:29;16.30;99.90
563;DHT22;266;49.514;8.294;2023-04-26T11:40:59;16.60;99.90
563;DHT22;266;49.514;8.294;2023-04-26T11:43:34;16.60;99.90
563;DHT22;266;49.514;8.294;2023-04-26T11:46:03;16.00;99.90
563;DHT22;266;49.514;8.294;2023-04-26T11:48:33;15.50;99.90
563;DHT22;266;49.514;8.294;2023-04-26T11:51:03;15.50;99.90
563;DHT22;266;49.514;8.294;2023-04-26T11:53:35;16.10;99.90
563;DHT22;266;49.514;8.294;2023-04-26T11:56:12;16.20;99.90
563;DHT22;266;49.514;8.294;2023-04-26T11:58:44;16.40;99.90
563;DHT22;266;49.514;8.294;2023-04-26T12:01:19;16.70;99.90
563;DHT22;266;49.514;8.294;2023-04-26T12:03:50;17.20;99.90
563;DHT22;266;49.514;8.294;2023-04-26T12:06:20;17.30;99.90
563;DHT22;266;49.514;8.294;2023-04-26T12:08:52;16.90;99.90
563;DHT22;266;49.514;8.294;2023-04-26T12:11:22;16.80;99.90
563;DHT22;266;49.514;8.294;2023-04-26T12:13:50;16.40;99.90
563;DHT22;266;49.514;8.294;2023-04-26T12:16:18;16.30;99.90
563;DHT22;266;49.514;8.294;2023-04-26T12:18:52;16.50;99.90
563;DHT22;266;49.514;8.294;2023-04-26T12:21:21;16.90;99.90
563;DHT22;266;49.514;8.294;2023-04-26T12:23:50;17.40;99.90
563;DHT22;266;49.514;8.294;2023-04-26T12:26:18;17.30;99.90
563;DHT22;266;49.514;8.294;2023-04-26T12:28:48;17.40;99.90
563;DHT22;266;49.514;8.294;2023-04-26T12:31:16;16.50;99.90
563;DHT22;266;49.514;8.294;2023-04-26T12:33:44;15.70;99.90
563;DHT22;266;49.514;8.294;2023-04-26T12:36:13;15.10;99.90
563;DHT22;266;49.514;8.294;2023-04-26T12:38:41;14.70;99.90
563;DHT22;266;49.514;8.294;2023-04-26T12:41:09;14.60;99.90
563;DHT22;266;49.514;8.294;2023-04-26T12:43:37;15.20;99.90
563;DHT22;266;49.514;8.294;2023-04-26T12:46:06;16.10;99.90
563;DHT22;266;49.514;8.294;2023-04-26T12:48:34;16.90;99.90
563;DHT22;266;49.514;8.294;2023-04-26T12:51:02;17.50;99.90
563;DHT22;266;49.514;8.294;2023-04-26T12:53:30;17.80;99.90
563;DHT22;266;49.514;8.294;2023-04-26T12:55:58;17.50;99.90
563;DHT22;266;49.514;8.294;2023-04-26T12:58:26;16.60;99.90
563;DHT22;266;49.514;8.294;2023-04-26T13:00:54;16.20;99.90
563;DHT22;266;49.514;8.294;2023-04-26T13:03:24;15.70;99.90
563;DHT22;266;49.514;8.294;2023-04-26T13:05:52;15.60;99.90
563;DHT22;266;49.514;8.294;2023-04-26T13:08:20;15.70;99.90
563;DHT22;266;49.514;8.294;2023-04-26T13:10:48;15.90;99.90
563;DHT22;266;49.514;8.294;2023-04-26T13:13:16;15.90;99.90
563;DHT22;266;49.514;8.294;2023-04-26T13:15:49;16.10;99.90
563;DHT22;266;49.514;8.294;2023-04-26T13:18:17;16.30;99.90
563;DHT22;266;49.514;8.294;2023-04-26T13:20:46;16.40;99.90
563;DHT22;266;49.514;8.294;2023-04-26T13:23:14;16.50;99.90
563;DHT22;266;49.514;8.294;2023-04-26T13:25:43;16.50;99.90
563;DHT22;266;49.514;8.294;2023-04-26T13:28:11;16.90;99.90
563;DHT22;266;49.514;8.294;2023-04-26T13:30:39;17.00;99.90
563;DHT22;266;49.514;8.294;2023-04-26T13:33:07;16.60;99.90
563;DHT22;266;49.514;8.294;2023-04-26T13:35:35;16.20;99.90
563;DHT22;266;49.514;8.294;2023-04-26T13:38:04;16.00;99.90
563;DHT22;266;49.514;8.294;2023-04-26T13:40:32;16.10;99.90
563;DHT22;266;49.514;8.294;2023-04-26T13:43:00;16.20;99.90
563;DHT22;266;49.514;8.294;2023-04-26T13:45:28;16.00;99.90
563;DHT22;266;49.514;8.294;2023-04-26T13:47:56;15.70;99.90
563;DHT22;266;49.514;8.294;2023-04-26T13:50:24;15.40;99.90
563;DHT22;266;49.514;8.294;2023-04-26T13:52:52;15.30;99.90
563;DHT22;266;49.514;8.294;2023-04-26T13:55:21;15.50;99.90
563;DHT22;266;49.514;8.294;2023-04-26T13:57:49;15.50;99.90
563;DHT22;266;49.514;8.294;2023-04-26T14:00:18;15.60;99.90
563;DHT22;266;49.514;8.294;2023-04-26T14:02:46;15.70;99.90
563;DHT22;266;49.514;8.294;2023-04-26T14:05:14;15.80;99.90
563;DHT22;266;49.514;8.294;2023-04-26T14:07:42;15.70;99.90
563;DHT22;266;49.514;8.294;2023-04-26T14:10:10;15.40;99.90
563;DHT22;266;49.514;8.294;2023-04-26T14:12:40;15.10;99.90
563;DHT22;266;49.514;8.294;2023-04-26T14:15:09;14.70;99.90
563;DHT22;266;49.514;8.294;2023-04-26T14:17:37;14.70;99.90
563;DHT22;266;49.514;8.294;2023-04-26T14:20:06;14.70;99.90
563;DHT22;266;49.514;8.294;2023-04-26T14:22:35;14.60;99.90
563;DHT22;266;49.514;8.294;2023-04-26T14:25:04;14.60;99.90
563;DHT22;266;49.514;8.294;2023-04-26T14:27:33;14.60;99.90
563;DHT22;266;49.514;8.294;2023-04-26T14:30:03;14.60;99.90
563;DHT22;266;49.514;8.294;2023-04-26T14:32:31;14.70;99.90
563;DHT22;266;49.514;8.294;2023-04-26T14:34:59;14.90;99.90
563;DHT22;266;49.514;8.294;2023-04-26T14:37:27;15.00;99.90
563;DHT22;266;49.514;8.294;2023-04-26T14:39:55;15.10;99.90
563;DHT22;266;49.514;8.294;2023-04-26T14:42:23;15.30;99.90
563;DHT22;266;49.514;8.294;2023-04-26T14:44:51;15.20;99.90
563;DHT22;266;49.514;8.294;2023-04-26T14:47:20;15.20;99.90
563;DHT22;266;49.514;8.294;2023-04-26T14:49:48;15.10;99.90
563;DHT22;266;49.514;8.294;2023-04-26T14:52:16;15.20;99.90
563;DHT22;266;49.514;8.294;2023-04-26T14:54:44;15.20;99.90
563;DHT22;266;49.514;8.294;2023-04-26T14:57:12;15.30;99.90
563;DHT22;266;49.514;8.294;2023-04-26T14:59:40;15.30;99.90
563;DHT22;266;49.514;8.294;2023-04-26T15:02:08;15.50;99.90
563;DHT22;266;49.514;8.294;2023-04-26T15:04:38;15.70;99.90
563;DHT22;266;49.514;8.294;2023-04-26T15:07:06;16.00;99.90
563;DHT22;266;49.514;8.294;2023-04-26T15:09:50;16.30;99.90
563;DHT22;266;49.514;8.294;2023-04-26T15:12:18;16.70;99.90
563;DHT22;266;49.514;8.294;2023-04-26T15:14:46;17.10;99.90
563;DHT22;266;49.514;8.294;2023-04-26T15:17:13;16.90;99.90
563;DHT22;266;49.514;8.294;2023-04-26T15:19:43;16.70;99.90
563;DHT22;266;49.514;8.294;2023-04-26T15:22:11;16.40;99.90
563;DHT22;266;49.514;8.294;2023-04-26T15:24:39;16.10;99.90
563;DHT22;266;49.514;8.294;2023-04-26T15:27:06;16.10;99.90
563;DHT22;266;49.514;8.294;2023-04-26T15:29:36;16.10;99.90
563;DHT22;266;49.514;8.294;2023-04-26T15:32:04;16.20;99.90
563;DHT22;266;49.514;8.294;2023-04-26T15:34:38;16.40;99.90
563;DHT22;266;49.514;8.294;2023-04-26T15:37:10;17.00;99.90
563;DHT22;266;49.514;8.294;2023-04-26T15:39:38;17.40;99.90
563;DHT22;266;49.514;8.294;2023-04-26T15:42:06;18.00;99.90
563;DHT22;266;49.514;8.294;2023-04-26T15:44:34;18.50;99.90
563;DHT22;266;49.514;8.294;2023-04-26T15:47:02;18.60;99.90
563;DHT22;266;49.514;8.294;2023-04-26T15:49:30;18.70;99.90
563;DHT22;266;49.514;8.294;2023-04-26T15:51:58;18.50;99.90
563;DHT22;266;49.514;8.294;2023-04-26T15:54:27;18.60;99.90
563;DHT22;266;49.514;8.294;2023-04-26T15:56:55;18.80;99.90
563;DHT22;266;49.514;8.294;2023-04-26T15:59:23;18.90;99.90
563;DHT22;266;49.514;8.294;2023-04-26T16:01:52;18.80;99.90
563;DHT22;266;49.514;8.294;2023-04-26T16:04:20;18.70;99.90
563;DHT22;266;49.514;8.294;2023-04-26T16:06:48;18.80;99.90
563;DHT22;266;49.514;8.294;2023-04-26T16:09:16;18.90;99.90
563;DHT22;266;49.514;8.294;2023-04-26T16:11:52;18.80;99.90
563;DHT22;266;49.514;8.294;2023-04-26T16:14:20;18.70;99.90
563;DHT22;266;49.514;8.294;2023-04-26T16:16:49;18.80;99.90
563;DHT22;266;49.514;8.294;2023-04-26T16:19:17;18.30;99.90
563;DHT22;266;49.514;8.294;2023-04-26T16:21:45;18.30;99.90
563;DHT22;266;49.514;8.294;2023-04-26T16:24:13;18.20;99.90
563;DHT22;266;49.514;8.294;2023-04-26T16:26:41;18.20;99.90
563;DHT22;266;49.514;8.294;2023-04-26T16:29:15;18.00;99.90
563;DHT22;266;49.514;8.294;2023-04-26T16:31:43;17.70;99.90
563;DHT22;266;49.514;8.294;2023-04-26T16:34:11;17.30;99.90
563;DHT22;266;49.514;8.294;2023-04-26T16:36:39;17.20;99.90
563;DHT22;266;49.514;8.294;2023-04-26T16:39:07;17.30;99.90
563;DHT22;266;49.514;8.294;2023-04-26T16:41:41;17.30;99.90
563;DHT22;266;49.514;8.294;2023-04-26T16:44:09;17.20;99.90
563;DHT22;266;49.514;8.294;2023-04-26T16:46:38;17.30;99.90
563;DHT22;266;49.514;8.294;2023-04-26T16:49:06;17.00;99.90
563;DHT22;266;49.514;8.294;2023-04-26T16:51:36;16.90;99.90
563;DHT22;266;49.514;8.294;2023-04-26T16:54:04;16.80;99.90
563;DHT22;266;49.514;8.294;2023-04-26T16:56:33;16.70;99.90
563;DHT22;266;49.514;8.294;2023-04-26T16:59:00;16.60;99.90